createdAt,value
2023-10-02T06:32:24.296Z,99099.00
2023-10-02T06:38:33.176Z,99113.00
2023-10-02T06:46:15.165Z,99114.00
2023-10-02T06:48:48.513Z,99112.00
2023-10-02T06:51:16.169Z,99114.00
2023-10-02T06:58:16.413Z,99114.00
2023-10-02T07:00:56.341Z,99121.00
2023-10-02T07:03:26.075Z,99123.00
2023-10-02T07:05:53.787Z,99126.00
2023-10-02T07:08:28.165Z,99132.00
2023-10-02T07:10:59.117Z,99125.00
2023-10-02T07:13:27.094Z,99137.00
2023-10-02T07:16:01.340Z,99132.00
2023-10-02T07:18:46.842Z,99129.00
2023-10-02T07:21:17.823Z,99120.00
2023-10-02T07:23:46.540Z,99123.00
2023-10-02T07:26:21.562Z,99120.00
2023-10-02T07:28:52.818Z,99119.00
2023-10-02T07:31:22.937Z,99117.00
2023-10-02T07:33:56.868Z,99124.00
2023-10-02T07:36:28.603Z,99125.00
2023-10-02T07:38:56.245Z,99119.00
2023-10-02T07:41:27.347Z,99112.00
2023-10-02T07:44:08.998Z,99125.00
2023-10-02T07:46:38.235Z,99122.00
2023-10-02T07:49:07.170Z,99116.00
2023-10-02T07:51:37.859Z,99122.00
2023-10-02T07:54:14.888Z,99130.00
2023-10-02T07:56:48.867Z,99129.00
2023-10-02T07:59:19.945Z,99131.00
2023-10-02T08:01:48.061Z,99128.00
2023-10-02T08:04:15.636Z,99124.00
2023-10-02T08:06:52.825Z,99131.00
2023-10-02T08:09:38.100Z,99134.00
2023-10-02T08:12:09.781Z,99125.00
2023-10-02T08:14:43.116Z,99124.00
2023-10-02T08:17:23.661Z,99131.00
2023-10-02T08:20:17.483Z,99129.00
2023-10-02T08:22:52.691Z,99130.00
2023-10-02T08:25:25.038Z,99122.00
2023-10-02T08:28:00.175Z,99125.00
2023-10-02T08:30:33.586Z,99129.00
2023-10-02T08:33:33.709Z,99122.00
2023-10-02T08:36:11.542Z,99128.00
2023-10-02T08:38:41.953Z,99125.00
2023-10-02T08:41:09.709Z,99125.00
2023-10-02T08:43:43.658Z,99132.00
2023-10-02T08:46:23.418Z,99126.00
2023-10-02T08:48:56.425Z,99126.00
2023-10-02T08:51:50.921Z,99124.00
2023-10-02T08:54:20.308Z,99131.00
2023-10-02T08:57:10.231Z,99121.00
2023-10-02T08:59:42.402Z,99128.00
2023-10-02T09:02:18.518Z,99129.00
2023-10-02T09:04:55.458Z,99116.00
2023-10-02T09:07:49.373Z,99122.00
2023-10-02T09:10:27.062Z,99117.00
2023-10-02T09:13:25.842Z,99117.00
2023-10-02T09:15:55.256Z,99121.00
2023-10-02T09:18:57.575Z,99114.00
2023-10-02T09:21:40.466Z,99112.00
2023-10-02T09:24:22.660Z,99096.00
2023-10-02T09:26:50.955Z,99099.00
2023-10-02T09:29:20.548Z,99101.00
2023-10-02T09:31:50.305Z,99091.00
2023-10-02T09:34:31.288Z,99091.00
2023-10-02T09:37:18.339Z,99095.00
2023-10-02T09:40:16.202Z,99089.00
2023-10-02T09:42:49.764Z,99081.00
2023-10-02T09:45:32.539Z,99074.00
2023-10-02T09:48:32.445Z,99083.00
2023-10-02T09:51:07.896Z,99073.00
2023-10-02T09:54:03.883Z,99070.00
2023-10-02T09:57:13.350Z,99070.00
2023-10-02T09:59:48.739Z,99067.00
2023-10-02T10:02:23.321Z,99058.00
2023-10-02T10:05:13.934Z,99057.00
2023-10-02T10:07:53.775Z,99054.00
2023-10-02T10:10:51.641Z,99044.00
2023-10-02T10:13:47.730Z,99040.00
2023-10-02T10:16:21.085Z,99036.00
2023-10-02T10:19:10.065Z,99034.00
2023-10-02T10:21:59.489Z,99028.00
2023-10-02T10:24:58.036Z,99019.00
2023-10-02T10:27:44.477Z,99015.00
2023-10-02T10:30:26.164Z,99018.00
2023-10-02T10:33:15.522Z,99014.00
2023-10-02T10:35:58.489Z,99013.00
2023-10-02T10:38:34.852Z,99011.00
2023-10-02T10:41:33.429Z,99007.00
2023-10-02T10:44:08.023Z,99004.00
2023-10-02T10:46:38.740Z,98999.00
2023-10-02T10:49:17.545Z,98996.00
2023-10-02T10:51:45.400Z,99004.00
2023-10-02T10:54:48.850Z,98997.00
2023-10-02T10:57:28.415Z,98998.00
2023-10-02T11:00:27.206Z,98995.00
2023-10-02T11:03:10.177Z,98995.00
2023-10-02T11:05:39.360Z,98992.00
2023-10-02T11:08:25.548Z,98996.00
2023-10-02T11:11:13.545Z,98996.00
2023-10-02T11:13:54.709Z,98995.00
2023-10-02T11:16:39.034Z,98990.00
2023-10-02T11:19:32.731Z,98983.00
2023-10-02T11:22:29.603Z,98985.00
2023-10-02T11:24:56.977Z,98992.00
2023-10-02T11:27:25.989Z,98985.00
2023-10-02T11:30:04.002Z,98983.00
2023-10-02T11:32:55.793Z,98978.00
2023-10-02T11:35:31.168Z,98973.00
2023-10-02T11:38:00.557Z,98969.00
2023-10-02T11:40:30.225Z,98968.00
2023-10-02T11:43:01.511Z,98971.00
2023-10-02T11:45:34.023Z,98957.00
2023-10-02T11:48:02.084Z,98956.00
2023-10-02T11:50:29.761Z,98955.00
2023-10-02T11:52:57.353Z,98950.00
2023-10-02T11:55:25.931Z,98951.00
2023-10-02T11:57:53.544Z,98943.00
2023-10-02T12:00:25.715Z,98943.00
2023-10-02T12:02:53.541Z,98940.00
2023-10-02T12:05:21.198Z,98935.00
2023-10-02T12:07:48.745Z,98930.00
2023-10-02T12:10:16.785Z,98927.00
2023-10-02T12:12:46.782Z,98934.00
2023-10-02T12:15:17.419Z,98930.00
2023-10-02T12:17:45.679Z,98920.00
2023-10-02T12:20:20.503Z,98917.00
2023-10-02T12:22:48.546Z,98913.00
2023-10-02T12:25:17.137Z,98909.00
2023-10-02T12:27:45.479Z,98905.00
2023-10-02T12:30:13.956Z,98905.00
2023-10-02T12:32:42.275Z,98895.00
2023-10-02T12:35:10.666Z,98905.00
2023-10-02T12:37:38.359Z,98894.00
2023-10-02T12:40:13.542Z,98889.00
2023-10-02T12:42:41.180Z,98882.00
2023-10-02T12:45:09.660Z,98870.00
2023-10-02T12:47:41.974Z,98876.00
2023-10-02T12:50:12.669Z,98878.00
2023-10-02T12:52:40.799Z,98865.00
2023-10-02T12:55:09.132Z,98868.00
2023-10-02T12:57:39.956Z,98872.00
2023-10-02T13:00:18.351Z,98871.00
2023-10-02T13:02:46.633Z,98860.00
2023-10-02T13:05:14.572Z,98859.00
2023-10-02T13:07:43.042Z,98861.00
2023-10-02T13:10:12.095Z,98854.00
2023-10-02T13:12:39.914Z,98856.00
2023-10-02T13:15:09.291Z,98845.00
2023-10-02T13:17:36.849Z,98851.00
2023-10-02T13:20:09.215Z,98847.00
2023-10-02T13:22:39.587Z,98843.00
2023-10-02T13:25:08.633Z,98842.00
2023-10-02T13:27:38.090Z,98841.00
2023-10-02T13:30:10.292Z,98843.00
2023-10-02T13:32:38.169Z,98844.00
2023-10-02T13:35:06.841Z,98841.00
2023-10-02T13:37:36.880Z,98839.00
2023-10-02T13:40:19.509Z,98839.00
2023-10-02T13:42:50.615Z,98836.00
2023-10-02T13:45:20.394Z,98835.00
2023-10-02T13:47:49.880Z,98825.00
2023-10-02T13:50:17.581Z,98803.00
2023-10-02T13:52:45.437Z,98799.00
2023-10-02T13:55:24.206Z,98797.00
2023-10-02T13:57:52.997Z,98791.00
2023-10-02T14:00:21.742Z,98792.00
2023-10-02T14:02:52.825Z,98780.00
2023-10-02T14:05:20.593Z,98786.00
2023-10-02T14:07:50.091Z,98783.00
2023-10-02T14:10:19.153Z,98791.00
2023-10-02T14:12:47.882Z,98783.00
2023-10-02T14:15:19.211Z,98785.00
2023-10-02T14:17:48.293Z,98786.00
2023-10-02T14:20:16.532Z,98785.00
2023-10-02T14:22:51.959Z,98783.00
2023-10-02T14:25:24.969Z,98782.00
2023-10-02T14:27:54.180Z,98777.00
2023-10-02T14:30:24.051Z,98773.00
2023-10-02T14:32:54.105Z,98779.00
2023-10-02T14:35:22.288Z,98781.00
2023-10-02T14:37:50.040Z,98775.00
2023-10-02T14:40:21.181Z,98779.00
2023-10-02T14:42:49.483Z,98773.00
2023-10-02T14:45:17.380Z,98768.00
2023-10-02T14:47:45.392Z,98767.00
2023-10-02T14:50:14.278Z,98768.00
2023-10-02T14:52:45.768Z,98757.00
2023-10-02T14:55:19.260Z,98757.00
2023-10-02T14:57:50.541Z,98755.00
2023-10-02T15:00:25.627Z,98762.00
2023-10-02T15:02:55.725Z,98764.00
2023-10-02T15:05:24.397Z,98762.00
2023-10-02T15:07:55.128Z,98761.00
2023-10-02T15:10:27.758Z,98765.00
2023-10-02T15:12:55.899Z,98752.00
2023-10-02T15:15:29.368Z,98739.00
2023-10-02T15:18:02.396Z,98752.00
2023-10-02T15:20:33.599Z,98748.00
2023-10-02T15:23:01.078Z,98746.00
2023-10-02T15:25:31.744Z,98739.00
2023-10-02T15:28:01.742Z,98746.00
2023-10-02T15:30:30.237Z,98745.00
2023-10-02T15:32:58.296Z,98740.00
2023-10-02T15:35:26.690Z,98742.00
2023-10-02T15:37:55.624Z,98733.00
2023-10-02T15:40:24.772Z,98736.00
2023-10-02T15:42:54.856Z,98733.00
2023-10-02T15:45:26.218Z,98738.00
2023-10-02T15:47:56.774Z,98739.00
2023-10-02T15:50:30.069Z,98732.00
2023-10-02T15:53:00.005Z,98735.00
2023-10-02T15:55:28.494Z,98738.00
2023-10-02T15:57:56.022Z,98734.00
2023-10-02T16:00:27.598Z,98743.00
2023-10-02T16:03:02.413Z,98736.00
2023-10-02T16:05:33.592Z,98735.00
2023-10-02T16:08:01.741Z,98738.00
2023-10-02T16:10:30.521Z,98732.00
2023-10-02T16:12:58.753Z,98729.00
2023-10-02T16:15:33.487Z,98733.00
2023-10-02T16:18:00.967Z,98731.00
2023-10-02T16:20:31.229Z,98723.00
2023-10-02T16:22:59.931Z,98719.00
2023-10-02T16:25:29.992Z,98725.00
2023-10-02T16:27:57.839Z,98716.00
2023-10-02T16:30:27.375Z,98722.00
2023-10-02T16:32:56.641Z,98729.00
2023-10-02T16:35:32.125Z,98725.00
2023-10-02T16:38:05.612Z,98730.00
2023-10-02T16:40:34.767Z,98735.00
2023-10-02T16:43:06.205Z,98733.00
2023-10-02T16:45:34.484Z,98734.00
2023-10-02T16:48:04.423Z,98733.00
2023-10-02T16:50:32.838Z,98736.00
2023-10-02T16:53:00.808Z,98745.00
2023-10-02T16:55:28.966Z,98745.00
2023-10-02T16:57:57.894Z,98749.00
2023-10-02T17:00:27.243Z,98748.00
2023-10-02T17:03:00.150Z,98743.00
2023-10-02T17:05:28.182Z,98741.00
2023-10-02T17:07:55.969Z,98737.00
2023-10-02T17:10:25.005Z,98734.00
2023-10-02T17:12:58.778Z,98736.00
2023-10-02T17:15:29.804Z,98733.00
2023-10-02T17:17:59.293Z,98721.00
2023-10-02T17:20:29.503Z,98721.00
2023-10-02T17:22:58.598Z,98713.00
2023-10-02T17:25:27.410Z,98734.00
2023-10-02T17:28:01.684Z,98725.00
2023-10-02T17:30:32.832Z,98731.00
2023-10-02T17:33:03.370Z,98729.00
2023-10-02T17:35:31.221Z,98725.00
2023-10-02T17:38:00.500Z,98728.00
2023-10-02T17:40:28.109Z,98732.00
2023-10-02T17:42:56.779Z,98729.00
2023-10-02T17:45:24.535Z,98727.00
2023-10-02T17:47:52.195Z,98723.00
2023-10-02T17:50:20.140Z,98732.00
2023-10-02T17:52:48.214Z,98728.00
2023-10-02T17:55:15.856Z,98732.00
2023-10-02T17:57:43.539Z,98735.00
2023-10-02T18:00:14.682Z,98730.00
2023-10-02T18:02:43.286Z,98731.00
2023-10-02T18:05:12.398Z,98725.00
2023-10-02T18:07:40.749Z,98733.00
2023-10-02T18:10:11.701Z,98741.00
2023-10-02T18:12:42.508Z,98742.00
2023-10-02T18:15:15.709Z,98723.00
2023-10-02T18:17:43.624Z,98733.00
2023-10-02T18:20:14.237Z,98732.00
2023-10-02T18:22:41.985Z,98739.00
2023-10-02T18:25:11.184Z,98733.00
2023-10-02T18:27:41.596Z,98737.00
2023-10-02T18:30:10.859Z,98733.00
2023-10-02T18:32:39.419Z,98738.00
2023-10-02T18:35:07.631Z,98736.00
2023-10-02T18:37:35.682Z,98741.00
2023-10-02T18:40:09.824Z,98746.00
2023-10-02T18:42:38.495Z,98746.00
2023-10-02T18:45:08.052Z,98751.00
2023-10-02T18:47:36.163Z,98752.00
2023-10-02T18:50:09.777Z,98746.00
2023-10-02T18:52:39.988Z,98746.00
2023-10-02T18:55:10.070Z,98748.00
2023-10-02T18:57:40.208Z,98752.00
2023-10-02T19:00:16.907Z,98742.00
2023-10-02T19:02:46.555Z,98747.00
2023-10-02T19:05:14.242Z,98742.00
2023-10-02T19:07:43.495Z,98749.00
2023-10-02T19:10:11.485Z,98749.00
2023-10-02T19:12:39.084Z,98746.00
2023-10-02T19:15:11.011Z,98749.00
2023-10-02T19:17:39.176Z,98745.00
2023-10-02T19:20:07.894Z,98764.00
2023-10-02T19:22:36.861Z,98764.00
2023-10-02T19:25:04.768Z,98763.00
2023-10-02T19:27:32.200Z,98765.00
2023-10-02T19:30:00.111Z,98766.00
2023-10-02T19:32:28.062Z,98765.00
2023-10-02T19:34:55.805Z,98765.00
2023-10-02T19:37:23.492Z,98761.00
2023-10-02T19:39:50.969Z,98758.00
2023-10-02T19:42:20.263Z,98755.00
2023-10-02T19:44:50.114Z,98762.00
2023-10-02T19:47:17.970Z,98756.00
2023-10-02T19:49:45.524Z,98764.00
2023-10-02T19:52:13.067Z,98759.00
2023-10-02T19:54:42.922Z,98758.00
2023-10-02T19:57:10.361Z,98757.00
2023-10-02T19:59:38.173Z,98748.00
2023-10-02T20:02:06.619Z,98758.00
2023-10-02T20:04:34.171Z,98755.00
2023-10-02T20:07:01.608Z,98750.00
2023-10-02T20:09:29.082Z,98756.00
2023-10-02T20:11:57.117Z,98750.00
2023-10-02T20:14:24.754Z,98752.00
2023-10-02T20:16:52.234Z,98747.00
2023-10-02T20:19:20.032Z,98745.00
2023-10-02T20:21:47.725Z,98741.00
2023-10-02T20:24:19.249Z,98738.00
2023-10-02T20:26:47.851Z,98739.00
2023-10-02T20:29:15.940Z,98750.00
